EGCN/DSA METAR and TAF weather

Enter ICAO airport designator
Station Type Date Time Source
EGCN METAR 2022/01/29 14:20 UTC NOAA

EGCN 291420Z 27034G50KT 9999 SCT039 11/03 Q1022


Station Type Date Time Source
EGCN Decoded METAR 2022/01/29 14:20 UTC NOAA

Station name not available
Jan 29, 2022 - 09:20 AM EST / 2022.01.29 1420 UTC
Wind: from the W (270 degrees) at 39 MPH (34 KT) gusting to 58 MPH (50 KT):1
Visibility: greater than 7 mile(s):0
Sky conditions: partly cloudy
Temperature: 51 F (11 C)
Dew Point: 37 F (3 C)
Relative Humidity: 57%
Pressure (altimeter): 30.18 in. Hg (1022 hPa)
ob: EGCN 291420Z 27034G50KT 9999 SCT039 11/03 Q1022
cycle: 14

Station Type Date Time Source
EGCN TAF 2022/01/29 12:00 UTC NOAA

TAF EGCN 291059Z 2912/3012 23020G30KT 9999 SCT025 PROB40
TEMPO 2912/2915 24025G40KT PROB30
TEMPO 2912/2913 BKN014
BECMG 2915/2918 32012KT PROB30
TEMPO 2918/2920 32015G25KT
BECMG 3000/3003 29002KT PROB30 3006/3010 8000

Example: see airport list